Chadstone Weather > Observations for 09/03/21

Select Day:



Observations
Time Temp Hum DP Wind Gust Dir Rain >9am Press
C % C kph kph mm hPa
00:00 16.1 96 15.5 0.0 2.5 S 6.3 997.1
00:10 16.1 97 15.6 0.0 2.5 WSW 6.3 997.0
00:20 16.0 97 15.5 0.0 2.5 SSW 6.3 997.1
00:30 16.0 97 15.5 0.2 7.2 SSW 6.6 997.1
00:40 15.7 98 15.4 1.2 8.6 S 6.6 997.1
00:50 15.6 98 15.3 0.1 5.0 SSW 6.6 997.2
01:00 15.6 97 15.1 0.0 5.0 SSW 6.6 997.2
01:10 15.5 97 15.0 0.0 3.6 SSW 6.6 997.3
01:20 15.4 97 14.9 0.3 6.1 S 6.6 997.5
01:30 15.3 97 14.8 0.0 2.5 S 6.6 997.2
01:40 15.2 97 14.7 0.0 3.6 S 6.6 997.3
01:50 15.0 96 14.4 0.0 3.6 SSW 6.6 997.3
02:00 14.7 97 14.2 0.2 5.0 SW 6.6 997.3
02:10 14.7 97 14.2 0.0 3.6 WSW 6.6 997.3
02:20 14.6 96 14.0 0.0 0.0 N 6.6 997.3
02:30 14.3 96 13.7 0.0 1.1 W 6.6 997.4
02:40 14.2 95 13.4 0.0 1.1 SW 6.6 997.3
02:50 14.1 95 13.3 0.0 0.0 N 6.6 997.4
03:00 14.0 95 13.2 0.0 0.0 N 6.6 997.3
03:10 13.9 96 13.3 0.0 0.0 N 6.6 997.4
03:20 13.8 96 13.2 0.0 0.0 N 6.6 997.2
03:30 13.9 96 13.3 0.0 0.0 N 6.6 997.4
03:40 13.9 96 13.3 0.0 0.0 N 6.6 997.4
03:50 14.1 96 13.5 0.0 0.0 N 6.6 997.5
04:00 14.2 96 13.6 0.0 0.0 N 6.6 997.4
04:10 14.2 96 13.6 0.0 0.0 N 6.6 997.6
04:20 14.2 96 13.6 0.0 0.0 N 6.6 997.7
04:30 14.3 97 13.8 0.0 0.0 N 6.6 997.8
04:40 14.4 97 13.9 0.0 0.0 N 6.6 997.7
04:50 14.5 97 14.0 2.0 7.2 SSE 6.6 997.7
05:00 14.7 97 14.2 2.1 9.7 S 6.6 997.8
05:10 14.8 97 14.3 0.1 3.6 S 6.6 997.8
05:20 14.8 97 14.3 0.0 0.0 N 6.6 997.9
05:30 14.9 97 14.4 0.0 1.1 SSW 6.6 997.7
05:40 14.9 97 14.4 0.3 2.5 SW 6.6 997.9
05:50 15.0 96 14.4 0.0 1.1 SW 6.6 998.2
06:00 15.1 96 14.5 0.0 2.5 SW 6.9 998.3
06:10 15.1 96 14.5 0.0 2.5 SW 7.5 998.5
06:20 15.1 96 14.5 0.7 5.0 SW 7.5 998.8
06:30 15.1 96 14.5 0.0 1.1 SSW 8.1 998.9
06:40 15.1 97 14.6 0.0 1.1 SW 8.1 999.0
06:50 15.1 97 14.6 0.2 5.0 S 8.4 999.1
07:00 15.0 97 14.5 1.2 5.0 W 8.7 999.2
07:10 15.0 97 14.5 0.9 7.2 SW 9.0 999.3
07:20 14.8 98 14.5 0.5 6.1 W 9.0 999.5
07:30 14.9 98 14.6 0.1 5.0 WSW 9.3 999.5
07:40 14.9 99 14.8 0.7 6.1 WSW 9.3 999.8
07:50 15.0 98 14.7 0.0 1.1 SW 9.3 999.9
08:00 14.9 99 14.8 1.3 6.1 SSW 9.3 1000.1
08:10 14.8 99 14.7 0.4 3.6 SSW 9.3 1000.3
08:20 14.9 99 14.8 0.1 3.6 WSW 9.3 1000.4
08:30 15.0 98 14.7 0.1 3.6 SW 9.3 1000.5
08:40 15.2 99 15.1 0.0 1.1 S 9.3 1000.7
08:50 15.3 99 15.2 2.0 6.1 WSW 9.3 1000.8
09:00 15.3 99 15.2 1.0 8.6 SW 9.3 1000.8
09:10 15.3 99 15.2 2.7 8.6 W 9.3 1000.8
09:20 15.4 99 15.3 2.2 7.2 WSW 9.3 1000.7
09:30 15.5 99 15.4 3.9 12.2 WNW 9.3 1000.9
09:40 15.5 99 15.4 2.5 9.7 WNW 9.3 1000.9
09:50 15.5 99 15.4 2.8 9.7 WNW 9.3 1001.1
10:00 15.7 99 15.6 1.8 8.6 WNW 0.0 1001.0
10:10 15.8 99 15.7 1.5 6.1 WSW 0.0 1001.1
10:20 16.1 98 15.8 1.7 9.7 SW 0.0 1001.3
10:30 16.3 98 16.0 3.7 8.6 WSW 0.0 1001.2
10:40 16.5 97 16.0 5.5 14.8 WSW 0.0 1001.3
10:50 16.4 96 15.8 2.7 11.2 WSW 0.0 1001.5
11:00 16.6 95 15.8 4.3 11.2 SW 0.0 1001.4
11:10 16.7 94 15.7 1.6 9.7 SW 0.0 1001.4
11:20 17.1 92 15.8 2.7 11.2 NW 0.0 1001.6
11:30 17.2 90 15.6 2.5 12.2 S 0.0 1001.6
11:40 17.6 87 15.4 3.0 12.2 WSW 0.0 1001.8
11:50 17.7 85 15.2 3.1 11.2 SW 0.0 1001.7
12:00 17.6 84 14.9 2.1 8.6 SSW 0.0 1001.8
12:10 17.7 84 15.0 2.5 11.2 S 0.0 1001.9
12:20 18.0 85 15.5 1.8 8.6 W 0.0 1001.8
12:30 18.1 83 15.2 3.3 13.3 SW 0.0 1002.0
12:40 17.8 82 14.7 1.6 12.2 SW 0.0 1002.0
12:50 18.1 84 15.4 1.4 9.7 S 0.0 1002.0
13:00 18.0 82 14.9 2.9 13.3 SSW 0.0 1001.8
13:10 17.7 82 14.6 2.6 12.2 SW 0.0 1001.9
13:20 18.0 84 15.3 2.0 14.8 S 0.0 1002.0
13:30 18.0 85 15.5 3.1 15.8 S 0.0 1002.1
13:40 17.4 86 15.0 2.8 13.3 S 0.0 1002.0
13:50 16.9 89 15.1 1.6 13.3 SW 0.0 1001.8
14:00 16.8 91 15.3 2.3 13.3 S 0.3 1001.7
14:10 16.6 92 15.3 1.7 13.3 WSW 0.3 1001.7
14:20 16.8 92 15.5 1.6 8.6 S 0.3 1001.5
14:30 17.2 91 15.7 3.3 11.2 SSW 0.3 1001.4
14:40 17.8 86 15.4 3.6 12.2 S 0.3 1001.3
14:50 18.3 82 15.2 1.7 9.7 SSW 0.3 1001.1
15:00 18.7 77 14.6 2.3 13.3 SSW 0.3 1001.0
15:10 18.9 74 14.2 7.3 20.9 SSE 0.3 1000.9
15:20 19.0 71 13.6 6.1 18.4 SSW 0.3 1000.8
15:30 19.1 69 13.3 5.7 23.4 SSW 0.3 1000.8
15:40 19.2 69 13.4 6.7 23.4 S 0.3 1000.9
15:50 19.4 68 13.4 5.9 23.4 SW 0.3 1000.8
16:00 19.2 67 12.9 7.1 18.4 SSE 0.3 1000.8
16:10 19.1 67 12.8 6.0 15.8 S 0.3 1000.8
16:20 19.2 67 12.9 3.3 11.2 SSE 0.3 1000.9
16:30 19.4 66 12.9 3.1 13.3 S 0.3 1000.9
16:40 19.2 65 12.5 2.8 14.8 SE 0.3 1000.9
16:50 19.2 65 12.5 2.5 11.2 SSE 0.3 1001.0
17:00 19.2 65 12.5 3.1 12.2 SSE 0.3 1001.1
17:10 19.1 65 12.4 3.8 14.8 SSE 0.3 1001.1
17:20 19.1 65 12.4 3.8 17.3 SSW 0.3 1001.2
17:30 19.0 65 12.3 3.6 15.8 S 0.3 1001.3
17:40 18.9 67 12.6 2.7 15.8 SSW 0.3 1001.4
17:50 18.8 66 12.3 4.8 12.2 S 0.3 1001.5
18:00 18.6 67 12.4 2.9 17.3 SSW 0.3 1001.4
18:10 18.5 67 12.3 2.5 12.2 SSE 0.3 1001.6
18:20 18.5 67 12.3 2.9 14.8 S 0.3 1001.8
18:30 18.2 68 12.2 0.7 5.0 SW 0.3 1001.8
18:40 18.1 68 12.1 2.1 13.3 SW 0.3 1001.9
18:50 17.9 68 11.9 2.1 12.2 S 0.3 1001.9
19:00 17.7 67 11.5 3.1 8.6 WSW 0.3 1002.1
19:10 17.7 67 11.5 2.9 11.2 S 0.3 1002.2
19:20 17.5 66 11.1 2.7 11.2 SW 0.3 1002.2
19:30 17.4 67 11.2 1.5 8.6 W 0.3 1002.3
19:40 17.2 69 11.5 1.8 9.7 NNE 0.3 1002.3
19:50 17.0 71 11.7 1.2 6.1 S 0.3 1002.4
20:00 16.9 73 12.0 1.9 8.6 WSW 0.3 1002.6
20:10 16.8 74 12.1 0.2 5.0 S 0.3 1002.5
20:20 16.6 75 12.2 0.5 5.0 SSW 0.3 1002.7
20:30 16.4 75 12.0 0.4 6.1 SSE 0.3 1002.9
20:40 16.4 76 12.2 1.7 7.2 SSE 0.3 1003.0
20:50 16.3 76 12.1 2.6 8.6 SSE 0.3 1003.1
21:00 16.2 76 12.0 2.6 9.7 SSE 0.3 1003.2
21:10 16.1 77 12.1 2.8 8.6 SSE 0.3 1003.1
21:20 16.1 77 12.1 1.7 7.2 SSE 0.3 1003.2
21:30 16.1 77 12.1 2.7 8.6 SSE 0.3 1003.2
21:40 16.1 77 12.1 1.9 7.2 SSE 0.3 1003.5
21:50 16.2 76 12.0 3.5 8.6 SSE 0.3 1005.4
22:00 16.2 76 12.0 0.7 5.0 S 0.3 1004.6
22:10 16.2 76 12.0 2.6 7.2 SSW 0.3 1004.3
22:20 16.2 75 11.8 3.0 9.7 SSE 0.3 1004.3
22:30 16.2 75 11.8 2.8 8.6 SSE 0.3 1003.9
22:40 16.2 75 11.8 5.3 12.2 SSE 0.3 1004.1
22:50 16.2 76 12.0 5.0 12.2 SE 0.3 1003.7
23:00 16.2 76 12.0 2.1 8.6 S 0.3 1004.2
23:10 16.1 76 11.9 3.5 11.2 S 0.3 1003.6
23:20 16.1 77 12.1 4.6 11.2 SSE 0.3 1003.8
23:30 16.1 77 12.1 1.8 9.7 S 0.3 1003.4
23:40 16.1 78 12.3 3.8 11.2 SE 0.3 1003.6
23:50 16.1 78 12.3 5.3 9.7 SE 0.3 1003.3